Terminal Aerodrome Forecast
Issued by NWS

Home | Current Version | Previous Version | Text Only | Print | Product List | Glossary On
Versions: 1 2 3 4 5 6 7 8 9 10 11 12 13 14 15 16 17 18
000
FTPA31 PHFO 230536
TAFSTU
TAF
NSTU 230536Z 2306/2406 02011KT P6SM VCSH SCT015 BKN035 BKN100
     FM232000 06007KT P6SM FEW015 SCT040 SCT120=

USA.gov is the U.S. government's official web portal to all federal, state and local government web resources and services.